createdAt,value
2023-03-11T00:00:26.311Z,68.23
2023-03-11T00:02:55.205Z,68.14
2023-03-11T00:05:25.317Z,68.49
2023-03-11T00:07:52.056Z,68.37
2023-03-11T00:10:21.709Z,67.94
2023-03-11T00:12:51.530Z,68.45
2023-03-11T00:15:18.243Z,68.23
2023-03-11T00:17:44.969Z,68.34
2023-03-11T00:20:30.926Z,68.04
2023-03-11T00:22:58.144Z,68.10
2023-03-11T00:25:28.319Z,68.49
2023-03-11T00:27:55.438Z,68.15
2023-03-11T00:30:23.867Z,68.00
2023-03-11T00:32:52.969Z,68.63
2023-03-11T00:35:23.647Z,68.04
2023-03-11T00:37:54.051Z,68.07
2023-03-11T00:40:22.424Z,68.39
2023-03-11T00:42:48.997Z,68.23
2023-03-11T00:45:16.021Z,68.17
2023-03-11T00:47:42.884Z,68.34
2023-03-11T00:50:12.331Z,68.42
2023-03-11T00:52:38.965Z,68.58
2023-03-11T00:55:06.600Z,68.50
2023-03-11T00:57:33.159Z,68.82
2023-03-11T00:59:59.876Z,68.93
2023-03-11T01:02:26.554Z,68.65
2023-03-11T01:04:55.742Z,68.48
2023-03-11T01:07:23.480Z,68.81
2023-03-11T01:09:50.163Z,68.45
2023-03-11T01:12:16.758Z,69.14
2023-03-11T01:14:43.551Z,68.59
2023-03-11T01:17:10.231Z,68.73
2023-03-11T01:19:36.841Z,68.54
2023-03-11T01:22:03.395Z,68.22
2023-03-11T01:24:29.991Z,68.48
2023-03-11T01:26:56.595Z,68.77
2023-03-11T01:29:23.090Z,68.48
2023-03-11T01:31:49.643Z,68.66
2023-03-11T01:34:16.247Z,68.50
2023-03-11T01:36:42.806Z,68.48
2023-03-11T01:39:09.362Z,68.43
2023-03-11T01:41:35.938Z,68.71
2023-03-11T01:44:04.208Z,68.41
2023-03-11T01:46:37.687Z,68.06
2023-03-11T01:49:05.940Z,68.26
2023-03-11T01:51:37.458Z,68.16
2023-03-11T01:54:10.648Z,68.41
2023-03-11T01:56:39.266Z,68.37
2023-03-11T01:59:08.387Z,68.56
2023-03-11T02:01:38.824Z,68.74
2023-03-11T02:04:05.376Z,68.36
2023-03-11T02:06:32.549Z,68.35
2023-03-11T02:09:00.978Z,68.57
2023-03-11T02:11:30.618Z,68.45
2023-03-11T02:14:02.422Z,68.36
2023-03-11T02:16:29.176Z,68.24
2023-03-11T02:19:00.586Z,68.49
2023-03-11T02:21:30.575Z,68.43
2023-03-11T02:24:07.915Z,68.47
2023-03-11T02:26:43.359Z,68.36
2023-03-11T02:29:12.082Z,68.42
2023-03-11T02:31:42.543Z,68.15
2023-03-11T02:34:18.978Z,68.27
2023-03-11T02:36:45.699Z,68.57
2023-03-11T02:39:12.338Z,68.62
2023-03-11T02:41:42.350Z,68.45
2023-03-11T02:44:11.752Z,68.78
2023-03-11T02:46:41.577Z,68.83
2023-03-11T02:49:09.562Z,68.29
2023-03-11T02:51:36.162Z,68.49
2023-03-11T02:54:05.324Z,68.38
2023-03-11T02:56:32.309Z,68.97
2023-03-11T02:58:58.843Z,68.87
2023-03-11T03:01:25.426Z,68.74
2023-03-11T03:03:52.132Z,68.60
2023-03-11T03:06:19.037Z,68.78
2023-03-11T03:08:45.603Z,69.25
2023-03-11T03:11:12.259Z,68.97
2023-03-11T03:13:38.841Z,68.84
2023-03-11T03:16:05.770Z,68.79
2023-03-11T03:18:32.387Z,68.94
2023-03-11T03:20:58.993Z,69.21
2023-03-11T03:23:25.522Z,69.17
2023-03-11T03:25:52.061Z,69.58
2023-03-11T03:28:19.259Z,68.87
2023-03-11T03:30:45.814Z,68.75
2023-03-11T03:33:12.797Z,69.64
2023-03-11T03:35:42.857Z,69.31
2023-03-11T03:38:09.446Z,69.20
2023-03-11T03:40:36.483Z,69.10
2023-03-11T03:43:03.706Z,68.86
2023-03-11T03:45:30.445Z,69.19
2023-03-11T03:47:57.194Z,69.19
2023-03-11T03:50:24.355Z,68.75
2023-03-11T03:52:50.884Z,69.19
2023-03-11T03:55:17.546Z,68.60
2023-03-11T03:57:44.072Z,69.02
2023-03-11T04:00:11.326Z,68.69
2023-03-11T04:02:37.944Z,68.57
2023-03-11T04:05:05.199Z,69.14
2023-03-11T04:07:34.267Z,69.38
2023-03-11T04:10:00.800Z,69.03
2023-03-11T04:12:27.758Z,69.09
2023-03-11T04:14:54.388Z,69.33
2023-03-11T04:17:21.074Z,69.12
2023-03-11T04:19:47.681Z,69.25
2023-03-11T04:22:14.253Z,69.24
2023-03-11T04:24:40.943Z,69.05
2023-03-11T04:27:07.582Z,68.95
2023-03-11T04:29:34.144Z,69.25
2023-03-11T04:32:00.687Z,68.54
2023-03-11T04:34:27.222Z,68.71
2023-03-11T04:36:54.649Z,68.63
2023-03-11T04:39:21.280Z,69.29
2023-03-11T04:41:47.843Z,68.85
2023-03-11T04:44:14.487Z,69.04
2023-03-11T04:46:41.043Z,68.96
2023-03-11T04:49:08.186Z,68.46
2023-03-11T04:51:34.743Z,68.73
2023-03-11T04:54:01.389Z,68.90
2023-03-11T04:56:27.934Z,69.32
2023-03-11T04:58:54.513Z,68.80
2023-03-11T05:01:21.034Z,69.30
2023-03-11T05:03:47.904Z,68.55
2023-03-11T05:06:14.430Z,68.89
2023-03-11T05:08:41.151Z,68.88
2023-03-11T05:11:08.898Z,69.13
2023-03-11T05:13:35.584Z,69.21
2023-03-11T05:16:02.259Z,68.94
2023-03-11T05:18:29.851Z,68.93
2023-03-11T05:20:56.413Z,69.01
2023-03-11T05:23:22.987Z,69.27
2023-03-11T05:25:49.552Z,69.21
2023-03-11T05:28:16.331Z,68.73
2023-03-11T05:30:42.827Z,68.76
2023-03-11T05:33:09.450Z,69.05
2023-03-11T05:35:36.098Z,69.29
2023-03-11T05:38:02.734Z,69.13
2023-03-11T05:40:29.268Z,69.29
2023-03-11T05:42:55.834Z,69.07
2023-03-11T05:45:22.357Z,69.13
2023-03-11T05:47:48.934Z,69.40
2023-03-11T05:50:15.476Z,68.82
2023-03-11T05:52:41.989Z,69.08
2023-03-11T05:55:11.484Z,69.16
2023-03-11T05:57:39.423Z,69.27
2023-03-11T06:00:12.328Z,69.59
2023-03-11T06:02:40.997Z,69.14
2023-03-11T06:05:08.632Z,69.23
2023-03-11T06:07:36.000Z,69.49
2023-03-11T06:10:03.654Z,69.58
2023-03-11T06:12:30.243Z,69.12
2023-03-11T06:14:56.826Z,69.17
2023-03-11T06:17:23.481Z,69.44
2023-03-11T06:19:50.054Z,69.33
2023-03-11T06:22:16.693Z,69.40
2023-03-11T06:24:43.212Z,69.33
2023-03-11T06:27:11.310Z,69.51
2023-03-11T06:29:37.919Z,69.27
2023-03-11T06:32:04.771Z,69.32
2023-03-11T06:34:31.332Z,69.54
2023-03-11T06:36:59.614Z,69.36
2023-03-11T06:39:26.208Z,69.65
2023-03-11T06:41:52.795Z,69.56
2023-03-11T06:44:19.333Z,69.71
2023-03-11T06:46:45.935Z,69.17
2023-03-11T06:49:12.478Z,69.54
2023-03-11T06:51:39.038Z,69.12
2023-03-11T06:54:05.615Z,69.67
2023-03-11T06:56:32.116Z,69.47
2023-03-11T06:58:58.713Z,69.42
2023-03-11T07:01:26.152Z,69.34
2023-03-11T07:03:53.169Z,69.44
2023-03-11T07:06:22.729Z,69.43
2023-03-11T07:08:51.505Z,69.77
2023-03-11T07:13:56.219Z,69.29
2023-03-11T07:16:26.308Z,69.38
2023-03-11T07:18:55.140Z,69.49
2023-03-11T07:21:23.189Z,69.15
2023-03-11T07:23:55.066Z,69.31
2023-03-11T07:26:22.556Z,69.36
2023-03-11T07:28:50.227Z,69.72
2023-03-11T07:31:21.179Z,68.77
2023-03-11T07:33:47.807Z,68.98
2023-03-11T07:36:18.648Z,69.54
2023-03-11T07:38:46.232Z,69.54
2023-03-11T07:41:14.237Z,69.06
2023-03-11T07:43:42.717Z,69.26
2023-03-11T07:48:46.964Z,69.54
2023-03-11T07:51:17.143Z,69.02
2023-03-11T07:53:44.457Z,69.49
2023-03-11T07:56:12.606Z,69.60
2023-03-11T07:58:40.166Z,69.37
2023-03-11T08:01:09.151Z,68.75
2023-03-11T08:03:36.486Z,68.86
2023-03-11T08:06:04.312Z,69.70
2023-03-11T08:08:30.841Z,68.68
2023-03-11T08:10:57.354Z,69.54
2023-03-11T08:13:23.925Z,69.54
2023-03-11T08:15:50.518Z,69.29
2023-03-11T08:18:17.213Z,69.01
2023-03-11T08:20:45.437Z,69.23
2023-03-11T08:23:12.408Z,68.97
2023-03-11T08:25:40.704Z,68.99
2023-03-11T08:28:09.031Z,68.02
2023-03-11T08:30:36.031Z,66.21
2023-03-11T08:33:02.593Z,65.04
2023-03-11T08:35:29.331Z,64.59
2023-03-11T08:37:56.037Z,65.05
2023-03-11T08:40:23.129Z,65.29
2023-03-11T08:42:49.734Z,65.08
2023-03-11T08:45:16.420Z,64.53
2023-03-11T08:47:43.069Z,64.42
2023-03-11T08:50:14.728Z,63.23
2023-03-11T08:52:41.449Z,61.24
2023-03-11T08:55:11.271Z,62.87
2023-03-11T08:57:38.448Z,62.91
2023-03-11T09:00:08.308Z,62.14
2023-03-11T09:02:35.316Z,62.98
2023-03-11T09:05:02.170Z,62.16
2023-03-11T09:07:28.817Z,61.45
2023-03-11T09:09:55.466Z,61.22
2023-03-11T09:12:22.152Z,61.08
2023-03-11T09:14:49.435Z,61.30
2023-03-11T09:17:17.380Z,60.52
2023-03-11T09:19:44.108Z,61.09
2023-03-11T09:22:10.957Z,60.37
2023-03-11T09:24:37.647Z,59.85
2023-03-11T09:27:05.443Z,60.51
2023-03-11T09:29:32.409Z,59.03
2023-03-11T09:32:00.370Z,59.73
2023-03-11T09:34:27.159Z,58.68
2023-03-11T09:36:53.724Z,57.81
2023-03-11T09:39:20.305Z,57.58
2023-03-11T09:41:58.299Z,56.77
2023-03-11T09:44:46.126Z,55.58
2023-03-11T09:58:02.143Z,54.13
2023-03-11T10:00:28.716Z,52.42
2023-03-11T10:02:55.928Z,53.03
2023-03-11T10:05:27.326Z,52.73
2023-03-11T10:10:42.134Z,51.30
2023-03-11T10:13:18.354Z,52.00
2023-03-11T10:18:49.854Z,50.95
2023-03-11T10:24:42.393Z,50.35
2023-03-11T10:27:16.168Z,47.92
2023-03-11T10:30:07.966Z,48.35
2023-03-11T10:32:43.045Z,47.25
2023-03-11T10:38:00.806Z,46.46
2023-03-11T10:40:31.506Z,47.63
2023-03-11T10:43:03.232Z,48.58
2023-03-11T10:45:36.899Z,47.09
2023-03-11T10:48:09.088Z,45.68
2023-03-11T10:50:36.613Z,46.71
2023-03-11T10:53:07.279Z,46.27
2023-03-11T10:55:33.872Z,46.11
2023-03-11T10:58:13.360Z,44.23
2023-03-11T11:00:40.034Z,44.23
2023-03-11T11:03:16.886Z,45.31
2023-03-11T11:05:43.547Z,46.12
2023-03-11T11:08:15.870Z,44.79
2023-03-11T11:10:52.985Z,46.28
2023-03-11T11:13:21.883Z,46.42
2023-03-11T11:15:57.088Z,46.52
2023-03-11T11:23:46.731Z,46.30
2023-03-11T11:31:48.612Z,46.87
2023-03-11T11:37:05.029Z,47.77
2023-03-11T11:39:44.545Z,47.76
2023-03-11T11:42:13.677Z,48.49
2023-03-11T11:44:43.075Z,48.38
2023-03-11T11:47:30.074Z,48.23
2023-03-11T11:50:00.929Z,48.05
2023-03-11T11:52:32.885Z,48.33
2023-03-11T11:55:04.919Z,49.72
2023-03-11T11:57:31.977Z,49.09
2023-03-11T11:59:58.775Z,48.71
2023-03-11T12:05:16.487Z,49.22
2023-03-11T12:07:57.265Z,49.68
2023-03-11T12:16:31.832Z,48.84
2023-03-11T12:27:19.797Z,49.48
2023-03-11T12:29:52.757Z,49.26
2023-03-11T12:32:29.322Z,49.02
2023-03-11T12:35:01.795Z,49.86
2023-03-11T12:37:28.315Z,49.55
2023-03-11T12:39:54.842Z,49.20
2023-03-11T12:42:25.105Z,49.85
2023-03-11T12:44:51.929Z,49.74
2023-03-11T12:47:28.984Z,48.11
2023-03-11T12:50:16.480Z,49.15
2023-03-11T12:52:58.666Z,50.76
2023-03-11T12:55:31.568Z,50.89
2023-03-11T12:58:07.905Z,51.65
2023-03-11T13:00:59.893Z,50.91
2023-03-11T13:08:48.559Z,50.88
2023-03-11T13:11:38.688Z,49.89
2023-03-11T13:14:29.963Z,50.72
2023-03-11T13:17:17.179Z,50.67
2023-03-11T13:19:49.028Z,51.00
2023-03-11T13:22:55.383Z,51.08
2023-03-11T13:25:35.137Z,50.97
2023-03-11T13:28:27.891Z,51.20
2023-03-11T13:42:47.976Z,51.49
2023-03-11T13:45:27.428Z,51.88
2023-03-11T13:48:00.649Z,51.53
2023-03-11T13:50:31.956Z,52.40
2023-03-11T13:53:01.019Z,52.42
2023-03-11T13:55:35.755Z,51.02
2023-03-11T13:58:15.775Z,51.80
2023-03-11T14:00:53.830Z,51.70
2023-03-11T14:03:23.812Z,51.61
2023-03-11T14:05:57.882Z,52.78
2023-03-11T14:08:34.924Z,52.05
2023-03-11T14:13:42.360Z,52.96
2023-03-11T14:16:15.391Z,53.27
2023-03-11T14:18:46.599Z,52.58
2023-03-11T14:21:18.926Z,52.87
2023-03-11T14:23:49.888Z,52.74
2023-03-11T14:26:21.648Z,53.44
2023-03-11T14:28:52.206Z,53.42
2023-03-11T14:31:32.765Z,53.38
2023-03-11T14:34:04.658Z,52.63
2023-03-11T14:47:55.208Z,53.31
2023-03-11T14:50:24.427Z,52.78
2023-03-11T14:52:57.548Z,53.02
2023-03-11T14:55:33.673Z,52.24
2023-03-11T14:58:06.725Z,53.48
2023-03-11T15:00:38.220Z,52.63
2023-03-11T15:03:28.927Z,52.79
2023-03-11T15:06:00.051Z,53.61
2023-03-11T15:08:29.768Z,53.04
2023-03-11T15:13:50.771Z,53.65
2023-03-11T15:16:37.567Z,54.46
2023-03-11T15:22:29.743Z,53.02
2023-03-11T15:24:59.544Z,55.13
2023-03-11T15:27:37.985Z,54.10
2023-03-11T15:30:19.455Z,54.46
2023-03-11T15:32:46.884Z,53.79
2023-03-11T15:35:17.163Z,55.10
2023-03-11T15:37:43.869Z,53.83
2023-03-11T15:45:54.373Z,55.27
2023-03-11T15:48:22.373Z,54.13
2023-03-11T15:50:54.748Z,53.82
2023-03-11T15:53:23.417Z,54.07
2023-03-11T15:55:50.844Z,55.32
2023-03-11T15:58:19.128Z,55.68
2023-03-11T16:00:49.548Z,54.17
2023-03-11T16:03:16.619Z,55.03
2023-03-11T16:05:43.299Z,55.62
2023-03-11T16:08:10.430Z,55.61
2023-03-11T16:10:37.776Z,55.18
2023-03-11T16:13:05.026Z,55.66
2023-03-11T16:15:35.732Z,55.23
2023-03-11T16:18:05.333Z,55.48
2023-03-11T16:20:46.537Z,57.35
2023-03-11T16:23:17.932Z,58.13
2023-03-11T16:25:45.256Z,60.06
2023-03-11T16:28:15.035Z,58.87
2023-03-11T16:30:41.866Z,60.66
2023-03-11T16:33:08.473Z,60.46
2023-03-11T16:35:35.360Z,59.97
2023-03-11T16:38:02.164Z,61.03
2023-03-11T16:40:29.268Z,60.71
2023-03-11T16:43:00.794Z,61.93
2023-03-11T16:45:28.101Z,61.70
2023-03-11T16:47:54.667Z,61.06
2023-03-11T16:50:24.233Z,60.51
2023-03-11T16:52:51.707Z,60.79
2023-03-11T16:55:18.586Z,61.05
2023-03-11T16:57:45.440Z,61.53
2023-03-11T17:00:12.929Z,61.66
2023-03-11T17:02:39.547Z,62.32
2023-03-11T17:05:07.509Z,61.93
2023-03-11T17:07:34.862Z,62.18
2023-03-11T17:10:01.495Z,61.83
2023-03-11T17:12:28.581Z,62.48
2023-03-11T17:14:55.832Z,62.04
2023-03-11T17:17:23.171Z,62.46
2023-03-11T17:19:50.028Z,61.47
2023-03-11T17:22:17.408Z,62.94
2023-03-11T17:24:43.953Z,63.23
2023-03-11T17:27:13.087Z,63.66
2023-03-11T17:29:39.861Z,63.47
2023-03-11T17:32:07.104Z,64.00
2023-03-11T17:34:33.778Z,64.45
2023-03-11T17:37:00.615Z,64.25
2023-03-11T17:39:27.162Z,64.39
2023-03-11T17:41:53.690Z,64.31
2023-03-11T17:44:20.243Z,64.85
2023-03-11T17:46:46.992Z,64.45
2023-03-11T17:49:15.210Z,64.64
2023-03-11T17:51:41.887Z,65.40
2023-03-11T17:54:08.453Z,64.62
2023-03-11T17:56:35.335Z,66.13
2023-03-11T17:59:01.886Z,66.69
2023-03-11T18:01:29.278Z,66.61
2023-03-11T18:03:55.974Z,67.83
2023-03-11T18:06:23.243Z,67.38
2023-03-11T18:08:50.634Z,68.01
2023-03-11T18:11:21.105Z,68.07
2023-03-11T18:13:47.979Z,68.02
2023-03-11T18:16:19.543Z,68.26
2023-03-11T18:18:46.982Z,69.02
2023-03-11T18:23:52.652Z,68.56
2023-03-11T18:26:19.159Z,69.15
2023-03-11T18:28:46.287Z,69.38
2023-03-11T18:31:15.727Z,69.50
2023-03-11T18:33:46.460Z,69.49
2023-03-11T18:36:16.445Z,69.69
2023-03-11T18:38:43.415Z,69.28
2023-03-11T18:41:10.366Z,69.72
2023-03-11T18:43:37.110Z,69.77
2023-03-11T18:46:08.453Z,70.58
2023-03-11T18:48:35.583Z,70.25
2023-03-11T18:51:02.275Z,70.61
2023-03-11T18:53:28.833Z,70.34
2023-03-11T18:56:01.583Z,70.74
2023-03-11T18:58:29.202Z,71.00
2023-03-11T19:01:02.728Z,71.88
2023-03-11T19:03:29.277Z,72.53
2023-03-11T19:05:55.793Z,72.90
2023-03-11T19:08:22.337Z,73.03
2023-03-11T19:10:48.876Z,73.31
2023-03-11T19:13:19.278Z,72.87
2023-03-11T19:15:46.184Z,74.97
2023-03-11T19:18:13.574Z,74.84
2023-03-11T19:20:40.718Z,74.44
2023-03-11T19:23:07.893Z,75.87
2023-03-11T19:25:35.363Z,75.87
2023-03-11T19:28:01.956Z,75.61
2023-03-11T19:30:28.529Z,75.60
2023-03-11T19:32:55.116Z,76.22
2023-03-11T19:35:23.677Z,77.49
2023-03-11T19:37:50.394Z,76.96
2023-03-11T19:40:17.486Z,76.87
2023-03-11T19:42:44.357Z,76.52
2023-03-11T19:45:11.589Z,77.45
2023-03-11T19:47:38.781Z,76.94
2023-03-11T19:50:06.283Z,76.67
2023-03-11T19:52:34.685Z,77.44
2023-03-11T19:55:01.280Z,78.09
2023-03-11T19:57:27.851Z,77.73
2023-03-11T19:59:55.771Z,78.22
2023-03-11T20:02:22.423Z,78.53
2023-03-11T20:04:49.078Z,78.23
2023-03-11T20:07:15.626Z,79.04
2023-03-11T20:09:42.276Z,78.92
2023-03-11T20:12:08.930Z,78.68
2023-03-11T20:14:35.641Z,79.48
2023-03-11T20:17:02.155Z,79.19
2023-03-11T20:19:28.901Z,78.29
2023-03-11T20:21:55.498Z,78.68
2023-03-11T20:24:22.091Z,78.92
2023-03-11T20:26:51.105Z,80.05
2023-03-11T20:29:17.872Z,79.52
2023-03-11T20:31:44.723Z,79.54
2023-03-11T20:34:12.140Z,79.15
2023-03-11T20:36:39.057Z,79.45
2023-03-11T20:39:09.897Z,80.18
2023-03-11T20:41:38.693Z,79.81
2023-03-11T20:44:07.053Z,78.98
2023-03-11T20:46:35.202Z,79.16
2023-03-11T20:49:02.414Z,79.36
2023-03-11T20:51:29.190Z,79.40
2023-03-11T20:53:55.737Z,79.80
2023-03-11T20:56:24.752Z,81.31
2023-03-11T20:58:52.741Z,80.71
2023-03-11T21:03:58.279Z,81.38
2023-03-11T21:06:28.734Z,81.16
2023-03-11T21:08:57.112Z,81.84
2023-03-11T21:11:25.033Z,82.30
2023-03-11T21:13:52.551Z,81.45
2023-03-11T21:16:19.779Z,81.13
2023-03-11T21:18:49.200Z,80.58
2023-03-11T21:21:17.632Z,81.06
2023-03-11T21:23:45.165Z,81.34
2023-03-11T21:26:14.949Z,82.78
2023-03-11T21:28:46.318Z,82.73
2023-03-11T21:31:17.911Z,82.14
2023-03-11T21:33:45.087Z,82.30
2023-03-11T21:36:13.438Z,82.19
2023-03-11T21:38:40.895Z,81.10
2023-03-11T21:41:14.432Z,82.24
2023-03-11T21:43:42.082Z,81.03
2023-03-11T21:46:12.565Z,82.13
2023-03-11T21:48:39.314Z,82.33
2023-03-11T21:51:06.935Z,81.76
2023-03-11T21:53:34.146Z,82.40
2023-03-11T21:56:01.395Z,82.21
2023-03-11T21:58:28.064Z,83.00
2023-03-11T22:00:54.806Z,82.03
2023-03-11T22:03:22.188Z,83.17
2023-03-11T22:05:48.848Z,83.68
2023-03-11T22:08:15.563Z,82.54
2023-03-11T22:10:42.403Z,83.00
2023-03-11T22:13:09.083Z,83.11
2023-03-11T22:15:36.862Z,82.27
2023-03-11T22:18:03.894Z,83.11
2023-03-11T22:20:30.578Z,83.76
2023-03-11T22:22:57.236Z,83.77
2023-03-11T22:25:23.778Z,83.80
2023-03-11T22:27:50.368Z,83.50
2023-03-11T22:30:17.106Z,83.19
2023-03-11T22:32:43.930Z,82.31
2023-03-11T22:35:10.501Z,82.29
2023-03-11T22:37:37.095Z,83.35
2023-03-11T22:40:07.469Z,83.06
2023-03-11T22:42:34.449Z,83.02
2023-03-11T22:45:00.992Z,82.78
2023-03-11T22:47:27.619Z,83.38
2023-03-11T22:49:54.129Z,83.61
2023-03-11T22:52:20.738Z,83.58
2023-03-11T22:54:47.419Z,83.28
2023-03-11T22:57:13.986Z,81.82
2023-03-11T22:59:40.507Z,81.96
2023-03-11T23:02:07.290Z,83.09
2023-03-11T23:04:33.833Z,81.64
2023-03-11T23:07:00.440Z,82.60
2023-03-11T23:09:27.119Z,82.29
2023-03-11T23:11:53.945Z,82.14
2023-03-11T23:14:27.934Z,81.76
2023-03-11T23:17:00.526Z,82.00
2023-03-11T23:19:27.104Z,82.53
2023-03-11T23:21:53.638Z,82.88
2023-03-11T23:24:20.184Z,82.32
2023-03-11T23:26:46.740Z,82.53
2023-03-11T23:29:14.785Z,81.91
2023-03-11T23:31:41.360Z,82.11
2023-03-11T23:34:08.194Z,81.01
2023-03-11T23:36:34.788Z,80.82
2023-03-11T23:39:01.389Z,81.26
2023-03-11T23:41:29.165Z,80.84
2023-03-11T23:43:55.791Z,81.25
2023-03-11T23:46:22.424Z,80.68
2023-03-11T23:48:49.035Z,80.47
2023-03-11T23:51:15.785Z,80.09
2023-03-11T23:53:42.308Z,79.99
2023-03-11T23:56:11.868Z,80.24
2023-03-11T23:58:38.584Z,79.90
